sensor_id;sensor_type;location;lat;lon;timestamp;temperature;humidity
8408;DHT22;4241;48.452;9.216;2023-05-10T00:00:38;13.80;99.90
8408;DHT22;4241;48.452;9.216;2023-05-10T00:03:05;13.80;99.90
8408;DHT22;4241;48.452;9.216;2023-05-10T00:05:32;13.80;99.90
8408;DHT22;4241;48.452;9.216;2023-05-10T00:10:26;13.70;99.90
8408;DHT22;4241;48.452;9.216;2023-05-10T00:12:53;13.70;99.90
8408;DHT22;4241;48.452;9.216;2023-05-10T00:15:20;13.80;99.90
8408;DHT22;4241;48.452;9.216;2023-05-10T00:17:48;13.60;99.90
8408;DHT22;4241;48.452;9.216;2023-05-10T00:22:42;13.60;99.90
8408;DHT22;4241;48.452;9.216;2023-05-10T00:25:09;13.60;99.90
8408;DHT22;4241;48.452;9.216;2023-05-10T00:27:35;13.60;99.90
8408;DHT22;4241;48.452;9.216;2023-05-10T00:30:03;13.60;99.90
8408;DHT22;4241;48.452;9.216;2023-05-10T00:32:30;13.70;99.90
8408;DHT22;4241;48.452;9.216;2023-05-10T00:34:58;13.60;99.90
8408;DHT22;4241;48.452;9.216;2023-05-10T00:37:25;13.50;99.90
8408;DHT22;4241;48.452;9.216;2023-05-10T00:49:40;13.30;99.90
8408;DHT22;4241;48.452;9.216;2023-05-10T00:52:09;13.20;99.90
8408;DHT22;4241;48.452;9.216;2023-05-10T00:54:36;13.20;99.90
8408;DHT22;4241;48.452;9.216;2023-05-10T00:57:03;13.60;99.90
8408;DHT22;4241;48.452;9.216;2023-05-10T00:59:30;13.00;99.90
8408;DHT22;4241;48.452;9.216;2023-05-10T01:01:57;13.30;99.90
8408;DHT22;4241;48.452;9.216;2023-05-10T01:04:24;12.90;99.90
8408;DHT22;4241;48.452;9.216;2023-05-10T01:06:52;13.00;99.90
8408;DHT22;4241;48.452;9.216;2023-05-10T01:09:21;12.80;99.90
8408;DHT22;4241;48.452;9.216;2023-05-10T01:11:49;13.00;99.90
8408;DHT22;4241;48.452;9.216;2023-05-10T01:14:18;12.90;99.90
8408;DHT22;4241;48.452;9.216;2023-05-10T01:16:46;12.80;99.90
8408;DHT22;4241;48.452;9.216;2023-05-10T01:19:18;13.00;99.90
8408;DHT22;4241;48.452;9.216;2023-05-10T01:21:49;12.80;99.90
8408;DHT22;4241;48.452;9.216;2023-05-10T01:24:46;12.90;99.90
8408;DHT22;4241;48.452;9.216;2023-05-10T01:27:24;13.50;99.90
8408;DHT22;4241;48.452;9.216;2023-05-10T01:33:10;12.80;99.90
8408;DHT22;4241;48.452;9.216;2023-05-10T01:35:41;12.80;99.90
8408;DHT22;4241;48.452;9.216;2023-05-10T01:41:03;12.80;99.90
8408;DHT22;4241;48.452;9.216;2023-05-10T01:46:25;12.80;99.90
8408;DHT22;4241;48.452;9.216;2023-05-10T01:48:57;12.80;99.90
8408;DHT22;4241;48.452;9.216;2023-05-10T01:51:29;12.80;99.90
8408;DHT22;4241;48.452;9.216;2023-05-10T01:54:02;12.70;99.90
8408;DHT22;4241;48.452;9.216;2023-05-10T01:56:31;12.80;99.90
8408;DHT22;4241;48.452;9.216;2023-05-10T01:59:00;12.80;99.90
8408;DHT22;4241;48.452;9.216;2023-05-10T02:01:30;12.70;99.90
8408;DHT22;4241;48.452;9.216;2023-05-10T02:03:59;12.80;99.90
8408;DHT22;4241;48.452;9.216;2023-05-10T02:06:27;12.90;99.90
8408;DHT22;4241;48.452;9.216;2023-05-10T02:08:54;12.90;99.90
8408;DHT22;4241;48.452;9.216;2023-05-10T02:11:21;12.80;99.90
8408;DHT22;4241;48.452;9.216;2023-05-10T02:13:50;12.70;99.90
8408;DHT22;4241;48.452;9.216;2023-05-10T02:16:18;12.70;99.90
8408;DHT22;4241;48.452;9.216;2023-05-10T02:18:52;12.70;99.90
8408;DHT22;4241;48.452;9.216;2023-05-10T02:21:21;12.70;99.90
8408;DHT22;4241;48.452;9.216;2023-05-10T02:23:51;12.50;99.90
8408;DHT22;4241;48.452;9.216;2023-05-10T02:26:19;12.60;99.90
8408;DHT22;4241;48.452;9.216;2023-05-10T02:28:47;12.60;99.90
8408;DHT22;4241;48.452;9.216;2023-05-10T02:31:15;12.60;99.90
8408;DHT22;4241;48.452;9.216;2023-05-10T02:33:43;12.60;99.90
8408;DHT22;4241;48.452;9.216;2023-05-10T02:36:12;12.70;99.90
8408;DHT22;4241;48.452;9.216;2023-05-10T02:38:41;12.60;99.90
8408;DHT22;4241;48.452;9.216;2023-05-10T02:41:10;12.70;99.90
8408;DHT22;4241;48.452;9.216;2023-05-10T02:43:38;12.60;99.90
8408;DHT22;4241;48.452;9.216;2023-05-10T02:48:33;12.80;99.90
8408;DHT22;4241;48.452;9.216;2023-05-10T02:51:04;12.30;99.90
8408;DHT22;4241;48.452;9.216;2023-05-10T02:53:33;12.60;99.90
8408;DHT22;4241;48.452;9.216;2023-05-10T02:56:05;12.50;99.90
8408;DHT22;4241;48.452;9.216;2023-05-10T02:58:33;12.80;99.90
8408;DHT22;4241;48.452;9.216;2023-05-10T03:03:27;12.50;99.90
8408;DHT22;4241;48.452;9.216;2023-05-10T03:05:54;12.50;99.90
8408;DHT22;4241;48.452;9.216;2023-05-10T03:08:21;12.50;99.90
8408;DHT22;4241;48.452;9.216;2023-05-10T03:10:55;12.40;99.90
8408;DHT22;4241;48.452;9.216;2023-05-10T03:13:35;12.60;99.90
8408;DHT22;4241;48.452;9.216;2023-05-10T03:16:08;12.50;99.90
8408;DHT22;4241;48.452;9.216;2023-05-10T03:18:41;12.50;99.90
8408;DHT22;4241;48.452;9.216;2023-05-10T03:21:11;12.50;99.90
8408;DHT22;4241;48.452;9.216;2023-05-10T03:23:42;12.50;99.90
8408;DHT22;4241;48.452;9.216;2023-05-10T03:26:10;12.50;99.90
8408;DHT22;4241;48.452;9.216;2023-05-10T03:28:40;12.60;99.90
8408;DHT22;4241;48.452;9.216;2023-05-10T03:31:08;12.60;99.90
8408;DHT22;4241;48.452;9.216;2023-05-10T03:33:35;12.50;99.90
8408;DHT22;4241;48.452;9.216;2023-05-10T03:36:02;12.50;99.90
8408;DHT22;4241;48.452;9.216;2023-05-10T03:38:29;12.50;99.90
8408;DHT22;4241;48.452;9.216;2023-05-10T03:40:56;12.50;99.90
8408;DHT22;4241;48.452;9.216;2023-05-10T03:43:22;12.50;99.90
8408;DHT22;4241;48.452;9.216;2023-05-10T03:45:51;12.50;99.90
8408;DHT22;4241;48.452;9.216;2023-05-10T03:58:06;12.60;99.90
8408;DHT22;4241;48.452;9.216;2023-05-10T04:00:33;12.40;99.90
8408;DHT22;4241;48.452;9.216;2023-05-10T04:03:01;12.50;99.90
8408;DHT22;4241;48.452;9.216;2023-05-10T04:15:17;12.40;99.90
8408;DHT22;4241;48.452;9.216;2023-05-10T04:17:44;12.40;99.90
8408;DHT22;4241;48.452;9.216;2023-05-10T04:20:13;12.40;99.90
8408;DHT22;4241;48.452;9.216;2023-05-10T04:25:07;12.50;99.90
8408;DHT22;4241;48.452;9.216;2023-05-10T04:30:02;12.50;99.90
8408;DHT22;4241;48.452;9.216;2023-05-10T04:32:29;12.50;99.90
8408;DHT22;4241;48.452;9.216;2023-05-10T04:34:56;12.40;99.90
8408;DHT22;4241;48.452;9.216;2023-05-10T04:37:25;12.70;99.90
8408;DHT22;4241;48.452;9.216;2023-05-10T04:42:18;12.60;99.90
8408;DHT22;4241;48.452;9.216;2023-05-10T04:54:35;12.60;99.90
8408;DHT22;4241;48.452;9.216;2023-05-10T04:59:29;12.60;99.90
8408;DHT22;4241;48.452;9.216;2023-05-10T05:01:56;12.60;99.90
8408;DHT22;4241;48.452;9.216;2023-05-10T05:04:22;12.70;99.90
8408;DHT22;4241;48.452;9.216;2023-05-10T05:06:49;12.60;99.90
8408;DHT22;4241;48.452;9.216;2023-05-10T05:11:45;12.60;99.90
8408;DHT22;4241;48.452;9.216;2023-05-10T05:24:00;12.50;99.90
8408;DHT22;4241;48.452;9.216;2023-05-10T05:26:27;12.70;99.90
8408;DHT22;4241;48.452;9.216;2023-05-10T05:28:55;12.60;99.90
8408;DHT22;4241;48.452;9.216;2023-05-10T05:31:22;12.60;99.90
8408;DHT22;4241;48.452;9.216;2023-05-10T05:33:49;12.60;99.90
8408;DHT22;4241;48.452;9.216;2023-05-10T05:41:10;12.70;99.90
8408;DHT22;4241;48.452;9.216;2023-05-10T05:43:37;12.70;99.90
8408;DHT22;4241;48.452;9.216;2023-05-10T05:46:05;12.80;99.90
8408;DHT22;4241;48.452;9.216;2023-05-10T05:53:27;12.70;99.90
8408;DHT22;4241;48.452;9.216;2023-05-10T05:55:54;12.70;99.90
8408;DHT22;4241;48.452;9.216;2023-05-10T05:58:21;12.70;99.90
8408;DHT22;4241;48.452;9.216;2023-05-10T06:00:48;12.70;99.90
8408;DHT22;4241;48.452;9.216;2023-05-10T06:03:19;12.60;99.90
8408;DHT22;4241;48.452;9.216;2023-05-10T06:08:13;12.80;99.90
8408;DHT22;4241;48.452;9.216;2023-05-10T06:10:39;12.70;99.90
8408;DHT22;4241;48.452;9.216;2023-05-10T06:18:01;12.80;99.90
8408;DHT22;4241;48.452;9.216;2023-05-10T06:20:29;12.80;99.90
8408;DHT22;4241;48.452;9.216;2023-05-10T06:30:23;12.80;99.90
8408;DHT22;4241;48.452;9.216;2023-05-10T06:32:53;12.80;99.90
8408;DHT22;4241;48.452;9.216;2023-05-10T06:35:21;12.80;99.90
8408;DHT22;4241;48.452;9.216;2023-05-10T06:37:49;12.90;99.90
8408;DHT22;4241;48.452;9.216;2023-05-10T06:40:16;12.90;99.90
8408;DHT22;4241;48.452;9.216;2023-05-10T06:42:43;12.80;99.90
8408;DHT22;4241;48.452;9.216;2023-05-10T06:45:11;12.90;99.90
8408;DHT22;4241;48.452;9.216;2023-05-10T06:47:38;13.00;99.90
8408;DHT22;4241;48.452;9.216;2023-05-10T06:50:06;14.10;99.90
8408;DHT22;4241;48.452;9.216;2023-05-10T06:55:01;13.20;99.90
8408;DHT22;4241;48.452;9.216;2023-05-10T06:57:28;13.30;99.90
8408;DHT22;4241;48.452;9.216;2023-05-10T07:02:23;13.40;99.90
8408;DHT22;4241;48.452;9.216;2023-05-10T07:07:17;13.40;99.90
8408;DHT22;4241;48.452;9.216;2023-05-10T07:09:44;13.50;99.90
8408;DHT22;4241;48.452;9.216;2023-05-10T07:12:12;13.40;99.90
8408;DHT22;4241;48.452;9.216;2023-05-10T07:14:39;13.40;99.90
8408;DHT22;4241;48.452;9.216;2023-05-10T07:19:33;13.40;99.90
8408;DHT22;4241;48.452;9.216;2023-05-10T07:22:00;13.50;99.90
8408;DHT22;4241;48.452;9.216;2023-05-10T07:26:55;13.40;99.90
8408;DHT22;4241;48.452;9.216;2023-05-10T07:29:23;13.50;99.90
8408;DHT22;4241;48.452;9.216;2023-05-10T07:34:17;13.40;99.90
8408;DHT22;4241;48.452;9.216;2023-05-10T07:36:44;13.90;99.90
8408;DHT22;4241;48.452;9.216;2023-05-10T07:39:10;13.30;99.90
8408;DHT22;4241;48.452;9.216;2023-05-10T07:41:37;13.40;99.90
8408;DHT22;4241;48.452;9.216;2023-05-10T07:44:04;13.40;99.90
8408;DHT22;4241;48.452;9.216;2023-05-10T07:46:33;13.40;99.90
8408;DHT22;4241;48.452;9.216;2023-05-10T07:51:26;13.40;99.90
8408;DHT22;4241;48.452;9.216;2023-05-10T07:53:54;13.60;99.90
8408;DHT22;4241;48.452;9.216;2023-05-10T07:56:23;13.40;99.90
8408;DHT22;4241;48.452;9.216;2023-05-10T07:58:50;13.40;99.90
8408;DHT22;4241;48.452;9.216;2023-05-10T08:01:18;13.40;99.90
8408;DHT22;4241;48.452;9.216;2023-05-10T08:03:46;13.50;99.90
8408;DHT22;4241;48.452;9.216;2023-05-10T08:06:13;13.80;99.90
8408;DHT22;4241;48.452;9.216;2023-05-10T08:08:40;13.70;99.90
8408;DHT22;4241;48.452;9.216;2023-05-10T08:11:07;13.90;99.90
8408;DHT22;4241;48.452;9.216;2023-05-10T08:13:34;13.80;99.90
8408;DHT22;4241;48.452;9.216;2023-05-10T08:16:01;13.80;99.90
8408;DHT22;4241;48.452;9.216;2023-05-10T08:18:28;14.00;99.90
8408;DHT22;4241;48.452;9.216;2023-05-10T08:20:56;14.10;99.90
8408;DHT22;4241;48.452;9.216;2023-05-10T08:23:22;14.30;99.90
8408;DHT22;4241;48.452;9.216;2023-05-10T08:25:49;14.40;99.90
8408;DHT22;4241;48.452;9.216;2023-05-10T08:28:16;14.40;99.90
8408;DHT22;4241;48.452;9.216;2023-05-10T08:33:10;14.30;99.90
8408;DHT22;4241;48.452;9.216;2023-05-10T08:35:38;14.50;99.90
8408;DHT22;4241;48.452;9.216;2023-05-10T08:38:06;14.60;99.90
8408;DHT22;4241;48.452;9.216;2023-05-10T08:43:05;14.90;99.90
8408;DHT22;4241;48.452;9.216;2023-05-10T08:45:33;14.70;99.90
8408;DHT22;4241;48.452;9.216;2023-05-10T08:48:02;14.90;99.90
8408;DHT22;4241;48.452;9.216;2023-05-10T08:53:00;15.00;99.90
8408;DHT22;4241;48.452;9.216;2023-05-10T08:55:32;15.10;99.90
8408;DHT22;4241;48.452;9.216;2023-05-10T08:57:59;15.20;99.90
8408;DHT22;4241;48.452;9.216;2023-05-10T09:00:26;15.20;99.90
8408;DHT22;4241;48.452;9.216;2023-05-10T09:02:54;15.20;99.90
8408;DHT22;4241;48.452;9.216;2023-05-10T09:05:21;15.10;99.90
8408;DHT22;4241;48.452;9.216;2023-05-10T09:07:48;15.10;99.90
8408;DHT22;4241;48.452;9.216;2023-05-10T09:10:15;15.10;99.90
8408;DHT22;4241;48.452;9.216;2023-05-10T09:12:44;15.10;99.90
8408;DHT22;4241;48.452;9.216;2023-05-10T09:15:11;15.00;99.90
8408;DHT22;4241;48.452;9.216;2023-05-10T09:17:40;15.00;99.90
8408;DHT22;4241;48.452;9.216;2023-05-10T09:20:07;15.10;99.90
8408;DHT22;4241;48.452;9.216;2023-05-10T09:25:06;15.00;99.90
8408;DHT22;4241;48.452;9.216;2023-05-10T09:30:01;15.20;99.90
8408;DHT22;4241;48.452;9.216;2023-05-10T09:32:37;15.30;99.90
8408;DHT22;4241;48.452;9.216;2023-05-10T09:35:08;15.30;99.90
8408;DHT22;4241;48.452;9.216;2023-05-10T09:40:05;15.30;99.90
8408;DHT22;4241;48.452;9.216;2023-05-10T09:42:33;15.40;99.90
8408;DHT22;4241;48.452;9.216;2023-05-10T09:45:02;15.10;99.90
8408;DHT22;4241;48.452;9.216;2023-05-10T09:47:31;15.10;99.90
8408;DHT22;4241;48.452;9.216;2023-05-10T09:49:59;15.00;99.90
8408;DHT22;4241;48.452;9.216;2023-05-10T09:52:29;15.00;99.90
8408;DHT22;4241;48.452;9.216;2023-05-10T09:54:57;15.00;99.90
8408;DHT22;4241;48.452;9.216;2023-05-10T09:57:24;15.00;99.90
8408;DHT22;4241;48.452;9.216;2023-05-10T10:02:21;15.00;99.90
8408;DHT22;4241;48.452;9.216;2023-05-10T10:04:55;14.90;99.90
8408;DHT22;4241;48.452;9.216;2023-05-10T10:07:23;14.90;99.90
8408;DHT22;4241;48.452;9.216;2023-05-10T10:09:51;14.70;99.90
8408;DHT22;4241;48.452;9.216;2023-05-10T10:12:18;14.40;99.90
8408;DHT22;4241;48.452;9.216;2023-05-10T10:14:46;14.20;99.90
8408;DHT22;4241;48.452;9.216;2023-05-10T10:17:15;14.10;99.90
8408;DHT22;4241;48.452;9.216;2023-05-10T10:19:43;14.10;99.90
8408;DHT22;4241;48.452;9.216;2023-05-10T10:22:11;14.10;99.90
8408;DHT22;4241;48.452;9.216;2023-05-10T10:24:38;14.10;99.90
8408;DHT22;4241;48.452;9.216;2023-05-10T10:27:17;14.20;99.90
8408;DHT22;4241;48.452;9.216;2023-05-10T10:29:52;14.40;99.90
8408;DHT22;4241;48.452;9.216;2023-05-10T10:32:27;14.30;99.90
8408;DHT22;4241;48.452;9.216;2023-05-10T10:34:58;14.30;99.90
8408;DHT22;4241;48.452;9.216;2023-05-10T10:37:43;14.50;99.90
8408;DHT22;4241;48.452;9.216;2023-05-10T10:40:24;14.60;99.90
8408;DHT22;4241;48.452;9.216;2023-05-10T10:42:52;14.70;99.90
8408;DHT22;4241;48.452;9.216;2023-05-10T10:45:20;14.60;99.90
8408;DHT22;4241;48.452;9.216;2023-05-10T10:50:16;14.90;99.90
8408;DHT22;4241;48.452;9.216;2023-05-10T10:52:44;15.00;99.90
8408;DHT22;4241;48.452;9.216;2023-05-10T10:55:12;15.00;99.90
8408;DHT22;4241;48.452;9.216;2023-05-10T10:57:44;15.10;99.90
8408;DHT22;4241;48.452;9.216;2023-05-10T11:00:22;15.10;99.90
8408;DHT22;4241;48.452;9.216;2023-05-10T11:02:51;15.40;99.90
8408;DHT22;4241;48.452;9.216;2023-05-10T11:05:37;15.50;99.90
8408;DHT22;4241;48.452;9.216;2023-05-10T11:08:12;15.80;99.90
8408;DHT22;4241;48.452;9.216;2023-05-10T11:10:40;16.10;99.90
8408;DHT22;4241;48.452;9.216;2023-05-10T11:13:08;16.30;99.90
8408;DHT22;4241;48.452;9.216;2023-05-10T11:15:38;16.20;99.90
8408;DHT22;4241;48.452;9.216;2023-05-10T11:18:18;16.40;99.90
8408;DHT22;4241;48.452;9.216;2023-05-10T11:20:51;16.30;99.90
8408;DHT22;4241;48.452;9.216;2023-05-10T11:23:18;16.50;99.90
8408;DHT22;4241;48.452;9.216;2023-05-10T11:25:48;16.50;99.90
8408;DHT22;4241;48.452;9.216;2023-05-10T11:28:17;16.70;99.90
8408;DHT22;4241;48.452;9.216;2023-05-10T11:30:44;16.80;99.90
8408;DHT22;4241;48.452;9.216;2023-05-10T11:33:15;16.30;99.90
8408;DHT22;4241;48.452;9.216;2023-05-10T11:35:43;16.20;99.90
8408;DHT22;4241;48.452;9.216;2023-05-10T11:38:12;15.50;99.90
8408;DHT22;4241;48.452;9.216;2023-05-10T11:40:40;14.80;99.90
8408;DHT22;4241;48.452;9.216;2023-05-10T11:43:08;14.50;99.90
8408;DHT22;4241;48.452;9.216;2023-05-10T11:45:36;14.30;99.90
8408;DHT22;4241;48.452;9.216;2023-05-10T11:48:03;14.30;99.90
8408;DHT22;4241;48.452;9.216;2023-05-10T11:52:58;14.20;99.90
8408;DHT22;4241;48.452;9.216;2023-05-10T11:55:26;14.20;99.90
8408;DHT22;4241;48.452;9.216;2023-05-10T12:02:50;14.10;99.90
8408;DHT22;4241;48.452;9.216;2023-05-10T12:05:16;14.00;99.90
8408;DHT22;4241;48.452;9.216;2023-05-10T12:07:43;14.10;99.90
8408;DHT22;4241;48.452;9.216;2023-05-10T12:10:12;14.00;99.90
8408;DHT22;4241;48.452;9.216;2023-05-10T12:12:42;14.10;99.90
8408;DHT22;4241;48.452;9.216;2023-05-10T12:15:17;14.40;99.90
8408;DHT22;4241;48.452;9.216;2023-05-10T12:17:45;14.60;99.90
8408;DHT22;4241;48.452;9.216;2023-05-10T12:20:20;14.70;99.90
8408;DHT22;4241;48.452;9.216;2023-05-10T12:22:50;14.50;99.90
8408;DHT22;4241;48.452;9.216;2023-05-10T12:25:17;14.60;99.90
8408;DHT22;4241;48.452;9.216;2023-05-10T12:27:51;14.70;99.90
8408;DHT22;4241;48.452;9.216;2023-05-10T12:30:22;14.60;99.90
8408;DHT22;4241;48.452;9.216;2023-05-10T12:32:49;14.60;99.90
8408;DHT22;4241;48.452;9.216;2023-05-10T12:35:16;14.40;99.90
8408;DHT22;4241;48.452;9.216;2023-05-10T12:37:46;14.60;99.90
8408;DHT22;4241;48.452;9.216;2023-05-10T12:40:13;14.60;99.90
8408;DHT22;4241;48.452;9.216;2023-05-10T12:42:40;14.50;99.90
8408;DHT22;4241;48.452;9.216;2023-05-10T12:45:09;14.40;99.90
8408;DHT22;4241;48.452;9.216;2023-05-10T12:47:36;14.70;99.90
8408;DHT22;4241;48.452;9.216;2023-05-10T12:50:03;14.70;99.90
8408;DHT22;4241;48.452;9.216;2023-05-10T12:52:31;14.80;99.90
8408;DHT22;4241;48.452;9.216;2023-05-10T12:54:58;15.00;99.90
8408;DHT22;4241;48.452;9.216;2023-05-10T12:57:26;15.10;99.90
8408;DHT22;4241;48.452;9.216;2023-05-10T12:59:53;15.20;99.90
8408;DHT22;4241;48.452;9.216;2023-05-10T13:02:21;15.30;99.90
8408;DHT22;4241;48.452;9.216;2023-05-10T13:04:49;15.40;99.90
8408;DHT22;4241;48.452;9.216;2023-05-10T13:17:06;15.40;99.90
8408;DHT22;4241;48.452;9.216;2023-05-10T13:19:34;15.40;99.90
8408;DHT22;4241;48.452;9.216;2023-05-10T13:22:01;15.60;99.90
8408;DHT22;4241;48.452;9.216;2023-05-10T13:24:28;15.60;99.90
8408;DHT22;4241;48.452;9.216;2023-05-10T13:26:55;15.60;99.90
8408;DHT22;4241;48.452;9.216;2023-05-10T13:29:21;15.90;99.90
8408;DHT22;4241;48.452;9.216;2023-05-10T13:31:48;15.90;99.90
8408;DHT22;4241;48.452;9.216;2023-05-10T13:34:15;16.10;99.90
8408;DHT22;4241;48.452;9.216;2023-05-10T13:36:43;16.20;99.90
8408;DHT22;4241;48.452;9.216;2023-05-10T13:39:10;16.10;99.90
8408;DHT22;4241;48.452;9.216;2023-05-10T13:41:37;15.90;99.90
8408;DHT22;4241;48.452;9.216;2023-05-10T13:53:54;15.70;99.90
8408;DHT22;4241;48.452;9.216;2023-05-10T14:11:05;16.00;99.90
8408;DHT22;4241;48.452;9.216;2023-05-10T14:13:32;16.00;99.90
8408;DHT22;4241;48.452;9.216;2023-05-10T14:15:59;16.20;99.90
8408;DHT22;4241;48.452;9.216;2023-05-10T14:18:26;16.20;99.90
8408;DHT22;4241;48.452;9.216;2023-05-10T14:23:21;16.40;99.90
8408;DHT22;4241;48.452;9.216;2023-05-10T14:25:49;16.50;99.90
8408;DHT22;4241;48.452;9.216;2023-05-10T14:28:18;15.70;99.90
8408;DHT22;4241;48.452;9.216;2023-05-10T14:30:45;16.60;99.90
8408;DHT22;4241;48.452;9.216;2023-05-10T14:33:12;16.40;99.90
8408;DHT22;4241;48.452;9.216;2023-05-10T14:43:01;16.50;99.90
8408;DHT22;4241;48.452;9.216;2023-05-10T14:45:29;16.70;99.90
8408;DHT22;4241;48.452;9.216;2023-05-10T14:47:56;16.60;99.90
8408;DHT22;4241;48.452;9.216;2023-05-10T14:50:24;16.40;99.90
8408;DHT22;4241;48.452;9.216;2023-05-10T14:55:18;16.50;99.90
8408;DHT22;4241;48.452;9.216;2023-05-10T14:57:45;16.50;99.90
8408;DHT22;4241;48.452;9.216;2023-05-10T15:00:15;16.50;99.90
8408;DHT22;4241;48.452;9.216;2023-05-10T15:02:45;16.60;99.90
8408;DHT22;4241;48.452;9.216;2023-05-10T15:05:13;16.50;99.90
8408;DHT22;4241;48.452;9.216;2023-05-10T15:12:36;16.10;99.90
8408;DHT22;4241;48.452;9.216;2023-05-10T15:15:03;16.30;99.90
8408;DHT22;4241;48.452;9.216;2023-05-10T15:19:59;16.40;99.90
8408;DHT22;4241;48.452;9.216;2023-05-10T15:22:27;16.40;99.90
8408;DHT22;4241;48.452;9.216;2023-05-10T15:24:54;16.40;99.90
8408;DHT22;4241;48.452;9.216;2023-05-10T15:37:10;15.90;99.90
8408;DHT22;4241;48.452;9.216;2023-05-10T15:39:37;15.80;99.90
8408;DHT22;4241;48.452;9.216;2023-05-10T15:42:04;15.80;99.90
8408;DHT22;4241;48.452;9.216;2023-05-10T15:44:31;15.80;99.90
8408;DHT22;4241;48.452;9.216;2023-05-10T15:47:00;15.70;99.90
8408;DHT22;4241;48.452;9.216;2023-05-10T15:49:28;15.80;99.90
8408;DHT22;4241;48.452;9.216;2023-05-10T15:51:54;15.70;99.90
8408;DHT22;4241;48.452;9.216;2023-05-10T15:54:23;15.40;99.90
8408;DHT22;4241;48.452;9.216;2023-05-10T15:56:49;15.50;99.90
8408;DHT22;4241;48.452;9.216;2023-05-10T16:06:38;15.50;99.90
8408;DHT22;4241;48.452;9.216;2023-05-10T16:09:05;15.40;99.90
8408;DHT22;4241;48.452;9.216;2023-05-10T16:11:33;15.30;99.90
8408;DHT22;4241;48.452;9.216;2023-05-10T16:14:00;15.20;99.90
8408;DHT22;4241;48.452;9.216;2023-05-10T16:28:44;14.90;99.90
8408;DHT22;4241;48.452;9.216;2023-05-10T16:33:38;14.70;99.90
8408;DHT22;4241;48.452;9.216;2023-05-10T16:41:00;14.80;99.90
8408;DHT22;4241;48.452;9.216;2023-05-10T16:43:28;14.70;99.90
8408;DHT22;4241;48.452;9.216;2023-05-10T16:45:56;14.80;99.90
8408;DHT22;4241;48.452;9.216;2023-05-10T16:48:22;14.80;99.90
8408;DHT22;4241;48.452;9.216;2023-05-10T16:53:17;14.80;99.90
8408;DHT22;4241;48.452;9.216;2023-05-10T16:55:44;14.80;99.90
8408;DHT22;4241;48.452;9.216;2023-05-10T16:58:11;14.80;99.90
8408;DHT22;4241;48.452;9.216;2023-05-10T17:00:38;14.70;99.90
8408;DHT22;4241;48.452;9.216;2023-05-10T17:03:06;14.80;99.90
8408;DHT22;4241;48.452;9.216;2023-05-10T17:08:00;14.70;99.90
8408;DHT22;4241;48.452;9.216;2023-05-10T17:10:27;14.70;99.90
8408;DHT22;4241;48.452;9.216;2023-05-10T17:12:54;14.60;99.90
8408;DHT22;4241;48.452;9.216;2023-05-10T17:15:20;14.70;99.90
8408;DHT22;4241;48.452;9.216;2023-05-10T17:17:47;14.60;99.90
8408;DHT22;4241;48.452;9.216;2023-05-10T17:20:16;14.60;99.90
8408;DHT22;4241;48.452;9.216;2023-05-10T17:22:42;14.50;99.90
8408;DHT22;4241;48.452;9.216;2023-05-10T17:25:09;14.60;99.90
8408;DHT22;4241;48.452;9.216;2023-05-10T17:30:04;14.30;99.90
8408;DHT22;4241;48.452;9.216;2023-05-10T17:34:58;14.10;99.90
8408;DHT22;4241;48.452;9.216;2023-05-10T17:37:26;14.10;99.90
8408;DHT22;4241;48.452;9.216;2023-05-10T17:39:54;14.20;99.90
8408;DHT22;4241;48.452;9.216;2023-05-10T17:42:21;14.10;99.90
8408;DHT22;4241;48.452;9.216;2023-05-10T17:44:48;14.10;99.90
8408;DHT22;4241;48.452;9.216;2023-05-10T17:47:14;13.80;99.90
8408;DHT22;4241;48.452;9.216;2023-05-10T17:49:41;13.90;99.90
8408;DHT22;4241;48.452;9.216;2023-05-10T17:54:36;13.80;99.90
8408;DHT22;4241;48.452;9.216;2023-05-10T17:59:30;13.80;99.90
8408;DHT22;4241;48.452;9.216;2023-05-10T18:01:57;13.70;99.90
8408;DHT22;4241;48.452;9.216;2023-05-10T18:04:24;13.70;99.90
8408;DHT22;4241;48.452;9.216;2023-05-10T18:06:51;13.80;99.90
8408;DHT22;4241;48.452;9.216;2023-05-10T18:11:53;13.60;99.90
8408;DHT22;4241;48.452;9.216;2023-05-10T18:14:20;13.40;99.90
8408;DHT22;4241;48.452;9.216;2023-05-10T18:16:48;13.40;99.90
8408;DHT22;4241;48.452;9.216;2023-05-10T18:19:14;13.40;99.90
8408;DHT22;4241;48.452;9.216;2023-05-10T18:29:04;13.40;99.90
8408;DHT22;4241;48.452;9.216;2023-05-10T18:36:25;13.50;99.90
8408;DHT22;4241;48.452;9.216;2023-05-10T18:38:53;13.70;99.90
8408;DHT22;4241;48.452;9.216;2023-05-10T18:41:20;13.40;99.90
8408;DHT22;4241;48.452;9.216;2023-05-10T18:43:47;13.30;99.90
8408;DHT22;4241;48.452;9.216;2023-05-10T18:46:15;13.30;99.90
8408;DHT22;4241;48.452;9.216;2023-05-10T18:48:42;13.30;99.90
8408;DHT22;4241;48.452;9.216;2023-05-10T18:58:31;13.20;99.90
8408;DHT22;4241;48.452;9.216;2023-05-10T19:01:00;13.20;99.90
8408;DHT22;4241;48.452;9.216;2023-05-10T19:03:29;13.30;99.90
8408;DHT22;4241;48.452;9.216;2023-05-10T19:05:56;13.10;99.90
8408;DHT22;4241;48.452;9.216;2023-05-10T19:13:17;13.10;99.90
8408;DHT22;4241;48.452;9.216;2023-05-10T19:20:39;13.20;99.90
8408;DHT22;4241;48.452;9.216;2023-05-10T19:30:27;13.10;99.90
8408;DHT22;4241;48.452;9.216;2023-05-10T19:32:56;13.10;99.90
8408;DHT22;4241;48.452;9.216;2023-05-10T19:35:23;12.70;99.90
8408;DHT22;4241;48.452;9.216;2023-05-10T19:37:51;12.90;99.90
8408;DHT22;4241;48.452;9.216;2023-05-10T19:40:18;13.00;99.90
8408;DHT22;4241;48.452;9.216;2023-05-10T19:42:44;12.90;99.90
8408;DHT22;4241;48.452;9.216;2023-05-10T19:45:11;12.80;99.90
8408;DHT22;4241;48.452;9.216;2023-05-10T19:47:39;12.70;99.90
8408;DHT22;4241;48.452;9.216;2023-05-10T19:50:07;12.80;99.90
8408;DHT22;4241;48.452;9.216;2023-05-10T19:52:34;12.80;99.90
8408;DHT22;4241;48.452;9.216;2023-05-10T19:55:03;12.70;99.90
8408;DHT22;4241;48.452;9.216;2023-05-10T19:57:30;12.80;99.90
8408;DHT22;4241;48.452;9.216;2023-05-10T20:12:14;11.80;99.90
8408;DHT22;4241;48.452;9.216;2023-05-10T20:17:08;12.50;99.90
8408;DHT22;4241;48.452;9.216;2023-05-10T20:24:29;12.50;99.90
8408;DHT22;4241;48.452;9.216;2023-05-10T20:26:56;12.40;99.90
8408;DHT22;4241;48.452;9.216;2023-05-10T20:29:25;12.10;99.90
8408;DHT22;4241;48.452;9.216;2023-05-10T20:31:51;12.30;99.90
8408;DHT22;4241;48.452;9.216;2023-05-10T20:41:40;12.20;99.90
8408;DHT22;4241;48.452;9.216;2023-05-10T20:46:35;12.50;99.90
8408;DHT22;4241;48.452;9.216;2023-05-10T20:51:30;12.40;99.90
8408;DHT22;4241;48.452;9.216;2023-05-10T20:53:57;12.30;99.90
8408;DHT22;4241;48.452;9.216;2023-05-10T20:56:26;12.10;99.90
8408;DHT22;4241;48.452;9.216;2023-05-10T20:58:53;12.30;99.90
8408;DHT22;4241;48.452;9.216;2023-05-10T21:03:48;12.30;99.90
8408;DHT22;4241;48.452;9.216;2023-05-10T21:08:42;12.30;99.90
8408;DHT22;4241;48.452;9.216;2023-05-10T21:11:09;12.40;99.90
8408;DHT22;4241;48.452;9.216;2023-05-10T21:16:03;12.30;99.90
8408;DHT22;4241;48.452;9.216;2023-05-10T21:18:30;12.40;99.90
8408;DHT22;4241;48.452;9.216;2023-05-10T21:20:58;12.20;99.90
8408;DHT22;4241;48.452;9.216;2023-05-10T21:23:25;12.30;99.90
8408;DHT22;4241;48.452;9.216;2023-05-10T21:25:52;12.30;99.90
8408;DHT22;4241;48.452;9.216;2023-05-10T21:33:13;12.00;99.90
8408;DHT22;4241;48.452;9.216;2023-05-10T21:35:40;12.10;99.90
8408;DHT22;4241;48.452;9.216;2023-05-10T21:38:08;12.00;99.90
8408;DHT22;4241;48.452;9.216;2023-05-10T21:40:37;11.80;99.90
8408;DHT22;4241;48.452;9.216;2023-05-10T21:43:04;12.00;99.90
8408;DHT22;4241;48.452;9.216;2023-05-10T21:47:58;11.90;99.90